Airfield :
LOGIN :

Register | Disclaimer

   EN    FR    IT 

 










Legend :    VFR   Marginal VFR   IFR   Intensive IFR   Very Intensive IFR
Visi :
Ceiling :
>= 8 km
>= 3000ft
5 to 8 km
1000 to 3000 ft
1500m to 5 km
500 to 1000 ft
800 to 1500m
200 to 500 ft
< 800m
< 200 ft
Symbols :   Thunderstorms  Fog  Heavy snow  Heavy precipitations  Wind > 20 kt
SIGMETs :     Misc.  Thunderstorms  Icing  Turbulence  Mountain Waves  Volcanic Ashes







- Airport Elevation : 776 ft
- IATA code : RMS


ETAR - Ramstein Air Base

CURRENT METAR :
  • 171905Z 29004KT 9999 -RA OVC070 22/15 A3004 RMK AO2A RAB05 SLP168

EXPIRED METARs :
  • 171858Z 30004KT 9999 BKN070 22/15 A3004 RMK AO2A SLP169 T02180152 $
  • 171758Z 28004KT 9999 FEW060 SCT190 24/15 A3003 RMK AO2A SLP166 T02360149 10260 20230 57005 $
  • 171658Z 27007KT 9999 SCT055 BKN070 24/15 A3004 RMK AO2A SLP168 T02400149 $

TAF TAF ETAR
Valid from the 17 at 18:00 until the 19 at 00:00 UTC


171758Z 1718/1824 27006KT 9999 SCT070 BKN100 QNH3004INS
BECMG 1720/1721 26006KT 9999 SCT020 BKN040 QNH3001INS
BECMG 1803/1804 26009KT 9999 SCT007 BKN010 QNH2994INS
TEMPO 1809/1811 25015G20KT
BECMG 1810/1811 25010G15KT 8000 -SHRA SCT010 BKN020 QNH2995INS
TEMPO 1811/1814 25015G22KT
BECMG 1813/1814 29009KT 8000 -SHRA SCT010 BKN020 OVC100 QNH2995INS TX26/1812Z TN13/1803Z
No reported NOTAMs for that airfield.



MET'MAP, your aeronautical weather chart ! - Copyright ORBIFLY December 2007 - Disclaimer

ORBIFLY MET'MAP TEAM :

Programming & Development : Alexandra Zaïnal
Concept & Development : Baudouin d'Aumeries
Co-Development & Prog : Marc-Olivier Méhu
Technical & hardware support : Manuel Goepfert

Contact : metmap@orbifly.com




SOURCES & CREDITS :

   NOAA